Ana Sayfa
METAR-TAF:

METAR-TAF

Havaalanları :

Ponta Delgada, Azor Adaları, Portekiz

Enlem: 37-44N, Boylam: 025-42W, yükseklik: 71 m

Güncel hava durumu gözlemi

Rapor saat 05:30 UTC de 11 dakika önce yapıldı.
Rüzgar doğu/kuzeydoğudan 9 kt
Sıcaklık 14°C
Nem 63%
Basınç 1027 hPa
Görüş mesafesi 10 km veya daha fazla
2300 ft yükseklikte az bulutlu
4500 ft yükseklikte parçalı çok bulutlu

METAR: LPPD 220530Z 07009KT 9999 FEW023 BKN045 14/07 Q1027

Saat: 04:41 (05:41 UTC)

Tahmin

Rapor saat 05:00 UTC de 41 dakika önce yapıldı.
Ayın 22'si saat 06 UTC'den ayın 23'si saat 06 UTC'ye kadar geçerli Tahmin
Rüzgar doğu/kuzeydoğudan 12 kt
Görüş mesafesi 10 km veya daha fazla
2000 ft yükseklikte az bulutlu
4500 ft yükseklikte parçalı çok bulutlu
Geçici
ayın 22'si saat 06 UTC'den ayın 23'si saat 06 UTC'ye kadar
2500 ft yükseklikte parçalı bulutlu

TAF: LPPD 220500Z 2206/2306 06012KT 9999 FEW020 BKN045 TEMPO 2206/2306 SCT025

4.000'den fazla havaalanı için hava durumu gözlemleri ve tahminleri (METAR ve TAF raporları).

Kullanılabilir istasyonlar harita üzerinde sarı ve kırmızı noktalarla gösterilir.

İstasyonun adını görmek için fareyi noktanın üzerinde gezdirin.

Sonrasında hava gözlem ve tahminlerini görmek için tıklayın.

Haritayı değiştirmek için: yaklaştırmak için siyah artı işaretli yeşil düğmeye ve uzaklaştırmak için de eksi işaretli düğmeye hızla tıklayın; bitişik haritalar için yeşil okları kullanın.


METAR-TAF: